»·PEaware :: DAL688 KJAC-KSLC

DAL688 :: KJAC-KSLC

FLIGHT INFORMATION

Flight Status: Arrived
Operator:
Delta Air Lines
More flights by this operator :: More flights under this callsign
Pilot: Patricio R. (14780)
Aircraft: BOEING 737-200
(B732)
More flights by this aircraft type
Origin: KJAC Jackson Hole
United States
Destination: KSLC Salt Lake City Intl
United States
More flights between these airports :: More routes between these airports
Route: ALPIN2 KICNE LHO LHO4
File this flight plan on PilotEdge
Remarks:
Altitude:
(Current/Filed)
28,000ft
Speed:
(Current/Filed)
436kts
Departed: 30-Apr-18 02:34 PM
Arrived: 30-Apr-18 03:25 PM
Distance/Time
Traveled:
178nm/0:51
Distance/Time
To Go:
Arrived

Flight Plot

Page will automatically refresh every two minutes.

Flight plan parsing failed; only flown route is shown


Map Options




Map Legend


Flown Route
Filed Route
Departure Airport
Arrival Airport
Navaid (VOR, NDB)
Fix

Horizontal Profiles

Position Reports

Time Latitude Longitude Heading Altitude Ground
Speed
30-Apr-18 14:18 43.603489 -110.737091 109 6429ft 0kts
30-Apr-18 14:19 43.603489 -110.737091 109 6429ft 0kts
30-Apr-18 14:20 43.603489 -110.737091 109 6429ft 0kts
30-Apr-18 14:21 43.603489 -110.737091 109 6429ft 0kts
30-Apr-18 14:22 43.603489 -110.737091 109 6429ft 0kts
30-Apr-18 14:23 43.603489 -110.737090 109 6429ft 0kts
30-Apr-18 14:24 43.603489 -110.737090 109 6429ft 0kts
30-Apr-18 14:25 43.603489 -110.737091 109 6429ft 0kts
30-Apr-18 14:26 43.603580 -110.737439 109 6429ft 2kts
30-Apr-18 14:27 43.603438 -110.738054 25 6429ft 1kts
30-Apr-18 14:28 43.603365 -110.738090 19 6429ft 0kts
30-Apr-18 14:29 43.604145 -110.737710 19 6429ft 17kts
30-Apr-18 14:30 43.610738 -110.734504 18 6429ft 28kts
30-Apr-18 14:31 43.614925 -110.732625 339 6429ft 0kts
30-Apr-18 14:32 43.615330 -110.733521 289 6429ft 13kts
30-Apr-18 14:33 43.599782 -110.741439 199 6587ft 164kts
30-Apr-18 14:34 43.549011 -110.770071 211 9458ft 234kts
30-Apr-18 14:35 43.489868 -110.816057 206 13035ft 258kts
30-Apr-18 14:38 43.603489 -110.737090 109 6429ft 0kts
30-Apr-18 14:39 43.603489 -110.737090 109 6429ft 0kts
30-Apr-18 14:40 43.603489 -110.737090 109 6429ft 0kts
30-Apr-18 14:41 43.603489 -110.737090 109 6429ft 0kts
30-Apr-18 14:42 43.603496 -110.737323 108 6429ft 2kts
30-Apr-18 14:43 43.603509 -110.738013 49 6429ft 2kts
30-Apr-18 14:45 43.603350 -110.738159 19 6429ft 0kts
30-Apr-18 14:46 43.605838 -110.736867 20 6429ft 20kts
30-Apr-18 14:47 43.612388 -110.733687 19 6429ft 30kts
30-Apr-18 14:48 43.613308 -110.734858 199 6429ft 63kts
30-Apr-18 14:49 43.573829 -110.758778 214 8026ft 198kts
30-Apr-18 14:50 43.517971 -110.798302 206 10247ft 249kts
30-Apr-18 14:51 43.451242 -110.840775 205 12851ft 278kts
30-Apr-18 14:52 43.379834 -110.886415 204 15443ft 294kts
30-Apr-18 14:53 43.305987 -110.933546 202 18129ft 294kts
30-Apr-18 14:54 43.231091 -110.981156 202 20282ft 302kts
30-Apr-18 14:55 43.154787 -111.030804 206 22264ft 309kts
30-Apr-18 14:56 43.078379 -111.092093 207 23384ft 337kts
30-Apr-18 14:57 42.996160 -111.158829 207 24781ft 348kts
30-Apr-18 14:58 42.912414 -111.226752 205 26031ft 356kts
30-Apr-18 14:59 42.827765 -111.288776 203 27237ft 361kts
30-Apr-18 15:00 42.737657 -111.352934 203 27930ft 376kts
30-Apr-18 15:01 42.643921 -111.418979 204 27933ft 392kts
30-Apr-18 15:02 42.547069 -111.487352 204 27931ft 403kts
30-Apr-18 15:02 42.463744 -111.545733 204 27928ft 410kts
30-Apr-18 15:04 42.344967 -111.628557 204 27929ft 417kts
30-Apr-18 15:05 42.245913 -111.697891 204 27963ft 421kts
30-Apr-18 15:05 42.159050 -111.758274 205 27959ft 422kts
30-Apr-18 15:06 42.063134 -111.824694 205 27927ft 354kts
30-Apr-18 15:07 41.975339 -111.885125 205 25699ft 355kts
30-Apr-18 15:08 41.891909 -111.942352 204 23958ft 340kts
30-Apr-18 15:09 41.823229 -111.988980 204 23971ft 328kts
30-Apr-18 15:11 41.720691 -112.029917 177 22525ft 335kts
30-Apr-18 15:11 41.644728 -112.034756 187 20952ft 327kts
30-Apr-18 15:12 41.556002 -112.048760 188 19081ft 320kts
30-Apr-18 15:13 41.467867 -112.055784 185 17233ft 316kts
30-Apr-18 15:14 41.382890 -112.060659 183 15488ft 311kts
30-Apr-18 15:15 41.298576 -112.037214 169 13748ft 310kts
30-Apr-18 15:16 41.214865 -112.024567 178 12198ft 298kts
30-Apr-18 15:17 41.133829 -112.015012 178 10754ft 284kts
30-Apr-18 15:18 41.060659 -112.006418 179 9331ft 255kts
30-Apr-18 15:19 40.991765 -111.998400 178 7935ft 244kts
30-Apr-18 15:20 40.927288 -111.990869 178 6619ft 211kts
30-Apr-18 15:21 40.879941 -111.985370 176 5653ft 132kts
30-Apr-18 15:22 40.845376 -111.981473 172 5045ft 127kts
30-Apr-18 15:23 40.809855 -111.977271 171 4321ft 128kts
30-Apr-18 15:24 40.786857 -111.974457 180 4236ft 39kts
30-Apr-18 15:25 40.784765 -111.975608 221 4236ft 0kts
30-Apr-18 15:26 40.786792 -111.976717 355 4236ft 20kts
30-Apr-18 15:27 40.789606 -111.979749 267 4236ft 15kts
30-Apr-18 15:28 40.789864 -111.985791 242 4236ft 18kts
30-Apr-18 15:29 40.787648 -111.985162 70 4236ft 5kts
30-Apr-18 15:30 40.787660 -111.985117 71 4236ft 0kts

Navigation Log

Ident Type
Flight plan parsing failed, navigation log unavailable